sensor_id;sensor_type;location;lat;lon;timestamp;pressure;altitude;pressure_sealevel;temperature;humidity
75740;BME280;64357;51.344;6.550;2023-10-08T00:01:15;101773.75;;;17.51;100.00
75740;BME280;64357;51.344;6.550;2023-10-08T00:03:45;101787.84;;;17.54;100.00
75740;BME280;64357;51.344;6.550;2023-10-08T00:06:19;101798.84;;;17.62;100.00
75740;BME280;64357;51.344;6.550;2023-10-08T00:08:51;101800.25;;;17.58;100.00
75740;BME280;64357;51.344;6.550;2023-10-08T00:11:46;101816.53;;;17.57;100.00
75740;BME280;64357;51.344;6.550;2023-10-08T00:14:18;101813.66;;;17.44;100.00
75740;BME280;64357;51.344;6.550;2023-10-08T00:16:55;101819.09;;;17.57;100.00
75740;BME280;64357;51.344;6.550;2023-10-08T00:19:23;101818.31;;;17.48;100.00
75740;BME280;64357;51.344;6.550;2023-10-08T00:21:52;101812.38;;;17.49;100.00
75740;BME280;64357;51.344;6.550;2023-10-08T00:24:18;101787.41;;;17.40;100.00
75740;BME280;64357;51.344;6.550;2023-10-08T00:26:52;101797.00;;;17.51;100.00
75740;BME280;64357;51.344;6.550;2023-10-08T00:29:17;101809.13;;;17.52;100.00
75740;BME280;64357;51.344;6.550;2023-10-08T00:31:47;101805.91;;;17.44;100.00
75740;BME280;64357;51.344;6.550;2023-10-08T00:34:17;101810.66;;;17.40;100.00
75740;BME280;64357;51.344;6.550;2023-10-08T00:36:46;101810.78;;;17.41;100.00
75740;BME280;64357;51.344;6.550;2023-10-08T00:39:13;101813.38;;;17.41;100.00
75740;BME280;64357;51.344;6.550;2023-10-08T00:41:43;101813.78;;;17.36;100.00
75740;BME280;64357;51.344;6.550;2023-10-08T00:44:10;101819.84;;;17.36;100.00
75740;BME280;64357;51.344;6.550;2023-10-08T00:46:49;101811.38;;;17.28;100.00
75740;BME280;64357;51.344;6.550;2023-10-08T00:49:21;101817.97;;;17.25;100.00
75740;BME280;64357;51.344;6.550;2023-10-08T00:51:47;101809.19;;;17.23;100.00
75740;BME280;64357;51.344;6.550;2023-10-08T00:54:18;101823.00;;;17.23;100.00
75740;BME280;64357;51.344;6.550;2023-10-08T00:56:46;101823.50;;;17.19;100.00
75740;BME280;64357;51.344;6.550;2023-10-08T00:59:18;101828.31;;;17.25;100.00
75740;BME280;64357;51.344;6.550;2023-10-08T01:01:50;101816.13;;;17.14;100.00
75740;BME280;64357;51.344;6.550;2023-10-08T01:04:21;101821.97;;;17.21;100.00
75740;BME280;64357;51.344;6.550;2023-10-08T01:06:57;101827.34;;;17.14;100.00
75740;BME280;64357;51.344;6.550;2023-10-08T01:09:29;101828.34;;;17.06;100.00
75740;BME280;64357;51.344;6.550;2023-10-08T01:12:08;101819.69;;;17.05;100.00
75740;BME280;64357;51.344;6.550;2023-10-08T01:14:34;101830.09;;;16.97;100.00
75740;BME280;64357;51.344;6.550;2023-10-08T01:17:03;101849.19;;;16.89;100.00
75740;BME280;64357;51.344;6.550;2023-10-08T01:19:34;101832.28;;;16.73;100.00
75740;BME280;64357;51.344;6.550;2023-10-08T01:22:05;101823.00;;;16.57;100.00
75740;BME280;64357;51.344;6.550;2023-10-08T01:24:41;101839.13;;;16.73;100.00
75740;BME280;64357;51.344;6.550;2023-10-08T01:27:07;101843.22;;;16.71;100.00
75740;BME280;64357;51.344;6.550;2023-10-08T01:29:37;101841.13;;;16.67;100.00
75740;BME280;64357;51.344;6.550;2023-10-08T01:32:02;101836.56;;;16.45;100.00
75740;BME280;64357;51.344;6.550;2023-10-08T01:34:35;101813.72;;;16.40;100.00
75740;BME280;64357;51.344;6.550;2023-10-08T01:37:02;101807.66;;;16.39;100.00
75740;BME280;64357;51.344;6.550;2023-10-08T01:39:30;101838.94;;;16.52;100.00
75740;BME280;64357;51.344;6.550;2023-10-08T01:41:57;101832.84;;;16.42;100.00
75740;BME280;64357;51.344;6.550;2023-10-08T01:44:33;101803.19;;;16.28;100.00
75740;BME280;64357;51.344;6.550;2023-10-08T01:47:00;101822.22;;;16.39;100.00
75740;BME280;64357;51.344;6.550;2023-10-08T01:49:26;101838.00;;;16.42;100.00
75740;BME280;64357;51.344;6.550;2023-10-08T01:51:57;101823.38;;;16.23;100.00
75740;BME280;64357;51.344;6.550;2023-10-08T01:54:29;101833.31;;;16.38;100.00
75740;BME280;64357;51.344;6.550;2023-10-08T01:56:56;101829.38;;;16.33;100.00
75740;BME280;64357;51.344;6.550;2023-10-08T01:59:22;101830.28;;;16.33;100.00
75740;BME280;64357;51.344;6.550;2023-10-08T02:01:47;101828.53;;;16.23;100.00
75740;BME280;64357;51.344;6.550;2023-10-08T02:04:13;101809.22;;;16.10;100.00
75740;BME280;64357;51.344;6.550;2023-10-08T02:06:41;101835.53;;;16.24;100.00
75740;BME280;64357;51.344;6.550;2023-10-08T02:09:11;101793.63;;;16.08;100.00
75740;BME280;64357;51.344;6.550;2023-10-08T02:11:48;101807.00;;;16.23;100.00
75740;BME280;64357;51.344;6.550;2023-10-08T02:14:19;101807.16;;;16.24;100.00
75740;BME280;64357;51.344;6.550;2023-10-08T02:16:46;101792.06;;;16.10;100.00
75740;BME280;64357;51.344;6.550;2023-10-08T02:19:11;101829.72;;;16.27;100.00
75740;BME280;64357;51.344;6.550;2023-10-08T02:21:38;101804.28;;;16.21;100.00
75740;BME280;64357;51.344;6.550;2023-10-08T02:24:06;101807.00;;;16.23;100.00
75740;BME280;64357;51.344;6.550;2023-10-08T02:26:32;101830.16;;;16.32;100.00
75740;BME280;64357;51.344;6.550;2023-10-08T02:29:01;101803.72;;;16.34;100.00
75740;BME280;64357;51.344;6.550;2023-10-08T02:31:27;101813.16;;;16.34;100.00
75740;BME280;64357;51.344;6.550;2023-10-08T02:33:53;101812.25;;;16.33;100.00
75740;BME280;64357;51.344;6.550;2023-10-08T02:36:18;101830.16;;;16.32;100.00
75740;BME280;64357;51.344;6.550;2023-10-08T02:38:44;101830.50;;;16.26;100.00
75740;BME280;64357;51.344;6.550;2023-10-08T02:41:16;101841.28;;;16.22;100.00
75740;BME280;64357;51.344;6.550;2023-10-08T02:43:43;101841.41;;;16.23;100.00
75740;BME280;64357;51.344;6.550;2023-10-08T02:46:10;101836.75;;;16.19;100.00
75740;BME280;64357;51.344;6.550;2023-10-08T02:48:42;101820.56;;;16.12;100.00
75740;BME280;64357;51.344;6.550;2023-10-08T02:51:10;101830.06;;;16.21;100.00
75740;BME280;64357;51.344;6.550;2023-10-08T02:53:43;101846.34;;;16.12;100.00
75740;BME280;64357;51.344;6.550;2023-10-08T02:56:09;101844.06;;;16.15;100.00
75740;BME280;64357;51.344;6.550;2023-10-08T02:58:42;101850.31;;;16.08;100.00
75740;BME280;64357;51.344;6.550;2023-10-08T03:01:13;101860.34;;;16.05;100.00
75740;BME280;64357;51.344;6.550;2023-10-08T03:03:41;101869.75;;;16.05;100.00
75740;BME280;64357;51.344;6.550;2023-10-08T03:06:09;101850.34;;;15.99;100.00
75740;BME280;64357;51.344;6.550;2023-10-08T03:08:37;101870.63;;;16.05;100.00
75740;BME280;64357;51.344;6.550;2023-10-08T03:11:06;101868.41;;;15.99;100.00
75740;BME280;64357;51.344;6.550;2023-10-08T03:13:42;101855.44;;;15.89;100.00
75740;BME280;64357;51.344;6.550;2023-10-08T06:46:13;101952.97;;;15.15;100.00
75740;BME280;64357;51.344;6.550;2023-10-08T06:48:40;101954.63;;;15.15;100.00
75740;BME280;64357;51.344;6.550;2023-10-08T06:51:10;101945.25;;;15.15;100.00
75740;BME280;64357;51.344;6.550;2023-10-08T06:53:42;101949.31;;;15.39;100.00
75740;BME280;64357;51.344;6.550;2023-10-08T06:56:12;101942.53;;;15.31;100.00
75740;BME280;64357;51.344;6.550;2023-10-08T06:58:39;101944.00;;;15.29;100.00
75740;BME280;64357;51.344;6.550;2023-10-08T07:01:07;101966.13;;;15.44;100.00
75740;BME280;64357;51.344;6.550;2023-10-08T07:03:34;101985.53;;;15.67;100.00
75740;BME280;64357;51.344;6.550;2023-10-08T07:06:04;101985.03;;;15.71;100.00
75740;BME280;64357;51.344;6.550;2023-10-08T07:08:42;102001.56;;;15.47;100.00
75740;BME280;64357;51.344;6.550;2023-10-08T07:11:16;101979.47;;;15.49;100.00
75740;BME280;64357;51.344;6.550;2023-10-08T07:13:43;101991.72;;;15.60;100.00
75740;BME280;64357;51.344;6.550;2023-10-08T07:16:08;101997.63;;;15.85;100.00
75740;BME280;64357;51.344;6.550;2023-10-08T07:18:39;102000.66;;;15.64;100.00
75740;BME280;64357;51.344;6.550;2023-10-08T07:21:04;101997.31;;;15.56;100.00
75740;BME280;64357;51.344;6.550;2023-10-08T07:23:40;102011.41;;;15.60;100.00
75740;BME280;64357;51.344;6.550;2023-10-08T07:26:25;102022.34;;;15.83;100.00
75740;BME280;64357;51.344;6.550;2023-10-08T07:28:51;102020.34;;;15.81;100.00
75740;BME280;64357;51.344;6.550;2023-10-08T07:31:21;102019.72;;;15.92;100.00
75740;BME280;64357;51.344;6.550;2023-10-08T07:33:51;102019.00;;;15.76;100.00
75740;BME280;64357;51.344;6.550;2023-10-08T07:36:35;102017.16;;;15.92;100.00
75740;BME280;64357;51.344;6.550;2023-10-08T07:39:00;102020.50;;;15.82;100.00
75740;BME280;64357;51.344;6.550;2023-10-08T07:41:34;102007.28;;;15.96;100.00
75740;BME280;64357;51.344;6.550;2023-10-08T07:44:03;102015.19;;;15.89;100.00
75740;BME280;64357;51.344;6.550;2023-10-08T07:46:47;102025.06;;;15.85;100.00
75740;BME280;64357;51.344;6.550;2023-10-08T07:49:15;102007.50;;;15.72;100.00
75740;BME280;64357;51.344;6.550;2023-10-08T07:52:00;102010.31;;;16.01;100.00
75740;BME280;64357;51.344;6.550;2023-10-08T07:54:36;102006.94;;;16.11;100.00
75740;BME280;64357;51.344;6.550;2023-10-08T07:57:04;101991.00;;;16.15;100.00
75740;BME280;64357;51.344;6.550;2023-10-08T07:59:44;102030.00;;;16.54;100.00
75740;BME280;64357;51.344;6.550;2023-10-08T08:02:19;102030.25;;;16.66;100.00
75740;BME280;64357;51.344;6.550;2023-10-08T08:04:51;102033.88;;;16.59;100.00
75740;BME280;64357;51.344;6.550;2023-10-08T08:07:18;102033.03;;;16.50;100.00
75740;BME280;64357;51.344;6.550;2023-10-08T08:09:49;102042.84;;;16.63;100.00
75740;BME280;64357;51.344;6.550;2023-10-08T08:12:24;102046.84;;;16.50;100.00
75740;BME280;64357;51.344;6.550;2023-10-08T08:14:51;102032.53;;;16.26;100.00
75740;BME280;64357;51.344;6.550;2023-10-08T08:17:25;102052.84;;;16.23;100.00
75740;BME280;64357;51.344;6.550;2023-10-08T08:19:52;102046.28;;;16.36;100.00
75740;BME280;64357;51.344;6.550;2023-10-08T08:22:27;102056.28;;;16.41;100.00
75740;BME280;64357;51.344;6.550;2023-10-08T08:25:07;102056.13;;;16.48;100.00
75740;BME280;64357;51.344;6.550;2023-10-08T08:27:39;102061.09;;;16.56;100.00
75740;BME280;64357;51.344;6.550;2023-10-08T08:30:05;102061.69;;;16.53;100.00
75740;BME280;64357;51.344;6.550;2023-10-08T08:32:41;102054.97;;;16.72;100.00
75740;BME280;64357;51.344;6.550;2023-10-08T08:35:10;102056.00;;;16.83;100.00
75740;BME280;64357;51.344;6.550;2023-10-08T08:37:39;102066.97;;;16.99;100.00
75740;BME280;64357;51.344;6.550;2023-10-08T08:40:10;102061.31;;;16.76;100.00
75740;BME280;64357;51.344;6.550;2023-10-08T08:42:45;102043.75;;;16.63;100.00
75740;BME280;64357;51.344;6.550;2023-10-08T08:45:25;102048.38;;;16.85;100.00
75740;BME280;64357;51.344;6.550;2023-10-08T08:48:04;102054.00;;;16.81;100.00
75740;BME280;64357;51.344;6.550;2023-10-08T08:50:32;102047.03;;;16.79;100.00
75740;BME280;64357;51.344;6.550;2023-10-08T08:53:01;102061.75;;;16.81;100.00
75740;BME280;64357;51.344;6.550;2023-10-08T08:55:32;102072.88;;;16.98;100.00
75740;BME280;64357;51.344;6.550;2023-10-08T08:58:01;102070.53;;;17.10;100.00
75740;BME280;64357;51.344;6.550;2023-10-08T09:00:30;102070.16;;;17.24;100.00
75740;BME280;64357;51.344;6.550;2023-10-08T09:02:56;102068.72;;;17.09;100.00
75740;BME280;64357;51.344;6.550;2023-10-08T09:05:24;102080.19;;;17.21;100.00
75740;BME280;64357;51.344;6.550;2023-10-08T09:10:27;102097.16;;;17.28;100.00
75740;BME280;64357;51.344;6.550;2023-10-08T09:12:54;102092.34;;;17.22;100.00
75740;BME280;64357;51.344;6.550;2023-10-08T09:15:24;102083.59;;;17.12;100.00
75740;BME280;64357;51.344;6.550;2023-10-08T09:17:55;102096.25;;;17.46;100.00
75740;BME280;64357;51.344;6.550;2023-10-08T09:20:26;102090.72;;;17.61;100.00
75740;BME280;64357;51.344;6.550;2023-10-08T09:25:49;102096.31;;;17.84;100.00
75740;BME280;64357;51.344;6.550;2023-10-08T09:28:17;102092.06;;;17.84;100.00
75740;BME280;64357;51.344;6.550;2023-10-08T09:30:46;102105.09;;;17.86;100.00
75740;BME280;64357;51.344;6.550;2023-10-08T09:33:17;102110.56;;;17.89;100.00
75740;BME280;64357;51.344;6.550;2023-10-08T09:35:50;102099.81;;;17.84;100.00
75740;BME280;64357;51.344;6.550;2023-10-08T09:38:34;102082.53;;;17.75;100.00
75740;BME280;64357;51.344;6.550;2023-10-08T09:41:28;102075.63;;;17.65;100.00
75740;BME280;64357;51.344;6.550;2023-10-08T09:44:12;102083.03;;;17.71;100.00
75740;BME280;64357;51.344;6.550;2023-10-08T09:46:40;102108.94;;;17.81;100.00
75740;BME280;64357;51.344;6.550;2023-10-08T09:49:08;102080.06;;;17.39;100.00
75740;BME280;64357;51.344;6.550;2023-10-08T09:51:40;102113.50;;;17.83;100.00
75740;BME280;64357;51.344;6.550;2023-10-08T09:54:23;102068.97;;;17.58;100.00
75740;BME280;64357;51.344;6.550;2023-10-08T09:56:58;102099.03;;;17.85;100.00
75740;BME280;64357;51.344;6.550;2023-10-08T09:59:27;102086.31;;;17.97;100.00
75740;BME280;64357;51.344;6.550;2023-10-08T10:01:54;102075.59;;;18.03;100.00
75740;BME280;64357;51.344;6.550;2023-10-08T10:04:25;102084.09;;;18.21;100.00
75740;BME280;64357;51.344;6.550;2023-10-08T10:06:51;102078.84;;;18.00;100.00
75740;BME280;64357;51.344;6.550;2023-10-08T10:09:24;102074.22;;;17.88;100.00
75740;BME280;64357;51.344;6.550;2023-10-08T10:11:53;102076.41;;;17.83;100.00
75740;BME280;64357;51.344;6.550;2023-10-08T10:14:47;102079.63;;;18.09;100.00
75740;BME280;64357;51.344;6.550;2023-10-08T10:17:19;102070.00;;;17.98;100.00
75740;BME280;64357;51.344;6.550;2023-10-08T10:20:00;102112.47;;;18.39;100.00
75740;BME280;64357;51.344;6.550;2023-10-08T10:22:36;102101.41;;;18.51;100.00
75740;BME280;64357;51.344;6.550;2023-10-08T10:25:02;102072.41;;;18.16;100.00
75740;BME280;64357;51.344;6.550;2023-10-08T10:30:33;102092.75;;;18.60;100.00
75740;BME280;64357;51.344;6.550;2023-10-08T10:33:02;102099.88;;;18.63;100.00
75740;BME280;64357;51.344;6.550;2023-10-08T10:35:31;102112.19;;;18.65;100.00
75740;BME280;64357;51.344;6.550;2023-10-08T10:37:58;102104.50;;;18.57;100.00
75740;BME280;64357;51.344;6.550;2023-10-08T10:40:28;102107.53;;;18.32;100.00
75740;BME280;64357;51.344;6.550;2023-10-08T10:42:56;102114.09;;;18.29;100.00
75740;BME280;64357;51.344;6.550;2023-10-08T10:45:38;102106.81;;;18.15;100.00
75740;BME280;64357;51.344;6.550;2023-10-08T10:48:13;102117.41;;;18.47;100.00
75740;BME280;64357;51.344;6.550;2023-10-08T10:50:51;102082.84;;;18.36;100.00
75740;BME280;64357;51.344;6.550;2023-10-08T10:53:42;102090.63;;;18.75;100.00
75740;BME280;64357;51.344;6.550;2023-10-08T10:56:23;102126.19;;;18.68;100.00
75740;BME280;64357;51.344;6.550;2023-10-08T10:59:05;102108.56;;;18.24;100.00
75740;BME280;64357;51.344;6.550;2023-10-08T11:01:51;102123.66;;;18.20;100.00
75740;BME280;64357;51.344;6.550;2023-10-08T11:04:47;102101.00;;;18.17;100.00
75740;BME280;64357;51.344;6.550;2023-10-08T11:07:18;102105.19;;;18.25;100.00
75740;BME280;64357;51.344;6.550;2023-10-08T11:09:49;102102.41;;;18.14;100.00
75740;BME280;64357;51.344;6.550;2023-10-08T11:12:18;102104.22;;;18.15;100.00
75740;BME280;64357;51.344;6.550;2023-10-08T11:14:48;102110.53;;;18.08;100.00
75740;BME280;64357;51.344;6.550;2023-10-08T11:17:22;102108.66;;;17.97;100.00
75740;BME280;64357;51.344;6.550;2023-10-08T11:19:48;102102.41;;;18.14;100.00
75740;BME280;64357;51.344;6.550;2023-10-08T11:22:17;102107.31;;;18.39;100.00
75740;BME280;64357;51.344;6.550;2023-10-08T11:24:46;102111.97;;;18.44;100.00
75740;BME280;64357;51.344;6.550;2023-10-08T11:27:31;102117.66;;;18.39;100.00
75740;BME280;64357;51.344;6.550;2023-10-08T11:30:04;102106.16;;;18.36;100.00
75740;BME280;64357;51.344;6.550;2023-10-08T11:32:38;102112.59;;;18.31;100.00
75740;BME280;64357;51.344;6.550;2023-10-08T11:35:16;102097.44;;;18.25;100.00
75740;BME280;64357;51.344;6.550;2023-10-08T11:37:59;102099.53;;;18.00;100.00
75740;BME280;64357;51.344;6.550;2023-10-08T11:40:28;102106.06;;;17.97;100.00
75740;BME280;64357;51.344;6.550;2023-10-08T11:43:03;102102.81;;;17.89;100.00
75740;BME280;64357;51.344;6.550;2023-10-08T11:45:28;102106.72;;;18.23;100.00
75740;BME280;64357;51.344;6.550;2023-10-08T11:48:12;102109.16;;;18.22;100.00
75740;BME280;64357;51.344;6.550;2023-10-08T11:50:40;102095.44;;;18.13;100.00
75740;BME280;64357;51.344;6.550;2023-10-08T11:53:06;102098.34;;;18.26;100.00
75740;BME280;64357;51.344;6.550;2023-10-08T11:55:32;102093.94;;;18.35;100.00
75740;BME280;64357;51.344;6.550;2023-10-08T11:58:03;102079.22;;;18.73;100.00
75740;BME280;64357;51.344;6.550;2023-10-08T12:00:40;102089.53;;;18.63;100.00
75740;BME280;64357;51.344;6.550;2023-10-08T12:03:17;102110.66;;;18.38;100.00
75740;BME280;64357;51.344;6.550;2023-10-08T12:05:46;102102.41;;;18.72;100.00
75740;BME280;64357;51.344;6.550;2023-10-08T12:08:15;102100.44;;;18.69;100.00
75740;BME280;64357;51.344;6.550;2023-10-08T12:10:45;102091.91;;;18.70;100.00
75740;BME280;64357;51.344;6.550;2023-10-08T12:13:14;102090.44;;;18.24;100.00
75740;BME280;64357;51.344;6.550;2023-10-08T12:15:44;102091.53;;;18.36;100.00
75740;BME280;64357;51.344;6.550;2023-10-08T12:18:12;102087.13;;;18.46;100.00
75740;BME280;64357;51.344;6.550;2023-10-08T12:20:41;102078.38;;;18.15;100.00
75740;BME280;64357;51.344;6.550;2023-10-08T12:23:11;102072.66;;;18.08;100.00
75740;BME280;64357;51.344;6.550;2023-10-08T12:25:44;102067.91;;;18.13;100.00
75740;BME280;64357;51.344;6.550;2023-10-08T12:28:22;102079.09;;;18.03;100.00
75740;BME280;64357;51.344;6.550;2023-10-08T12:30:51;102062.16;;;17.78;100.00
75740;BME280;64357;51.344;6.550;2023-10-08T12:33:21;102080.13;;;18.05;100.00
75740;BME280;64357;51.344;6.550;2023-10-08T12:35:51;102054.41;;;18.07;100.00
75740;BME280;64357;51.344;6.550;2023-10-08T12:38:21;102058.31;;;17.83;100.00
75740;BME280;64357;51.344;6.550;2023-10-08T12:40:50;102033.56;;;17.95;100.00
75740;BME280;64357;51.344;6.550;2023-10-08T12:43:22;102029.41;;;17.97;100.00
75740;BME280;64357;51.344;6.550;2023-10-08T12:45:53;102069.03;;;18.06;100.00
75740;BME280;64357;51.344;6.550;2023-10-08T12:48:22;102061.13;;;18.05;100.00
75740;BME280;64357;51.344;6.550;2023-10-08T12:50:49;102057.06;;;17.98;100.00
75740;BME280;64357;51.344;6.550;2023-10-08T12:53:26;102067.75;;;17.82;100.00
75740;BME280;64357;51.344;6.550;2023-10-08T12:55:55;102063.06;;;17.78;100.00
75740;BME280;64357;51.344;6.550;2023-10-08T12:58:26;102036.34;;;17.88;100.00
75740;BME280;64357;51.344;6.550;2023-10-08T13:00:55;102052.13;;;17.91;100.00
75740;BME280;64357;51.344;6.550;2023-10-08T13:03:40;102046.19;;;17.92;100.00
75740;BME280;64357;51.344;6.550;2023-10-08T13:06:21;102034.41;;;17.85;100.00
75740;BME280;64357;51.344;6.550;2023-10-08T13:08:51;102028.03;;;17.82;100.00
75740;BME280;64357;51.344;6.550;2023-10-08T13:11:21;102038.75;;;18.05;100.00
75740;BME280;64357;51.344;6.550;2023-10-08T13:13:51;102035.53;;;18.08;100.00
75740;BME280;64357;51.344;6.550;2023-10-08T13:16:18;102024.66;;;18.41;100.00
75740;BME280;64357;51.344;6.550;2023-10-08T13:18:46;102031.69;;;18.23;100.00
75740;BME280;64357;51.344;6.550;2023-10-08T13:21:12;102025.41;;;18.30;100.00
75740;BME280;64357;51.344;6.550;2023-10-08T13:23:37;102028.00;;;18.30;100.00
75740;BME280;64357;51.344;6.550;2023-10-08T13:26:03;102018.06;;;18.45;100.00
75740;BME280;64357;51.344;6.550;2023-10-08T13:28:35;102001.50;;;18.43;100.00
75740;BME280;64357;51.344;6.550;2023-10-08T13:31:04;102022.66;;;18.18;100.00
75740;BME280;64357;51.344;6.550;2023-10-08T13:33:38;102000.81;;;18.25;100.00
75740;BME280;64357;51.344;6.550;2023-10-08T13:36:07;102002.50;;;18.34;100.00
75740;BME280;64357;51.344;6.550;2023-10-08T13:38:36;101996.88;;;18.59;100.00
75740;BME280;64357;51.344;6.550;2023-10-08T13:41:05;101990.06;;;18.80;100.00
75740;BME280;64357;51.344;6.550;2023-10-08T13:43:35;101992.00;;;18.82;100.00
75740;BME280;64357;51.344;6.550;2023-10-08T13:46:04;101995.09;;;18.68;100.00
75740;BME280;64357;51.344;6.550;2023-10-08T13:48:35;101989.63;;;18.65;100.00
75740;BME280;64357;51.344;6.550;2023-10-08T13:51:04;101980.94;;;18.54;100.00
75740;BME280;64357;51.344;6.550;2023-10-08T13:53:33;101982.09;;;18.58;100.00
75740;BME280;64357;51.344;6.550;2023-10-08T13:56:02;101966.72;;;18.59;100.00
75740;BME280;64357;51.344;6.550;2023-10-08T13:58:30;101964.38;;;18.62;100.00
75740;BME280;64357;51.344;6.550;2023-10-08T14:00:58;101958.81;;;18.58;100.00
75740;BME280;64357;51.344;6.550;2023-10-08T14:03:28;101958.06;;;18.69;100.00
75740;BME280;64357;51.344;6.550;2023-10-08T14:05:57;101958.41;;;18.63;100.00
75740;BME280;64357;51.344;6.550;2023-10-08T14:08:29;101959.75;;;18.69;100.00
75740;BME280;64357;51.344;6.550;2023-10-08T14:10:57;101957.41;;;18.61;100.00
75740;BME280;64357;51.344;6.550;2023-10-08T14:13:32;101956.00;;;18.65;100.00
75740;BME280;64357;51.344;6.550;2023-10-08T14:15:58;101956.22;;;18.58;100.00
75740;BME280;64357;51.344;6.550;2023-10-08T14:18:25;101948.97;;;18.64;100.00
75740;BME280;64357;51.344;6.550;2023-10-08T14:20:57;101947.59;;;18.68;100.00
75740;BME280;64357;51.344;6.550;2023-10-08T14:23:27;101947.94;;;18.62;100.00
75740;BME280;64357;51.344;6.550;2023-10-08T14:25:54;101954.53;;;18.58;100.00
75740;BME280;64357;51.344;6.550;2023-10-08T14:28:30;101954.16;;;18.54;100.00
75740;BME280;64357;51.344;6.550;2023-10-08T14:31:14;101955.09;;;18.75;100.00
75740;BME280;64357;51.344;6.550;2023-10-08T14:33:43;101961.72;;;18.71;100.00
75740;BME280;64357;51.344;6.550;2023-10-08T14:36:26;101954.06;;;18.83;100.00
75740;BME280;64357;51.344;6.550;2023-10-08T14:39:11;101947.84;;;18.91;100.00
75740;BME280;64357;51.344;6.550;2023-10-08T14:42:17;101947.72;;;18.59;100.00
75740;BME280;64357;51.344;6.550;2023-10-08T14:45:01;101957.16;;;18.69;100.00
75740;BME280;64357;51.344;6.550;2023-10-08T14:47:29;101960.53;;;18.78;100.00
75740;BME280;64357;51.344;6.550;2023-10-08T14:49:55;101957.56;;;18.73;100.00
75740;BME280;64357;51.344;6.550;2023-10-08T14:52:22;101963.47;;;18.62;100.00
75740;BME280;64357;51.344;6.550;2023-10-08T14:54:50;101953.63;;;18.58;100.00
75740;BME280;64357;51.344;6.550;2023-10-08T14:57:17;101963.97;;;18.58;100.00
75740;BME280;64357;51.344;6.550;2023-10-08T14:59:43;101964.88;;;18.38;100.00
75740;BME280;64357;51.344;6.550;2023-10-08T15:02:09;101969.28;;;18.49;100.00
75740;BME280;64357;51.344;6.550;2023-10-08T15:04:37;101970.06;;;18.48;100.00
75740;BME280;64357;51.344;6.550;2023-10-08T15:07:05;101965.84;;;18.69;100.00
75740;BME280;64357;51.344;6.550;2023-10-08T15:09:34;101964.94;;;18.89;100.00
75740;BME280;64357;51.344;6.550;2023-10-08T15:12:02;101954.97;;;18.83;100.00
75740;BME280;64357;51.344;6.550;2023-10-08T15:14:27;101951.22;;;18.90;100.00
75740;BME280;64357;51.344;6.550;2023-10-08T15:16:52;101950.59;;;18.82;100.00
75740;BME280;64357;51.344;6.550;2023-10-08T15:19:19;101946.81;;;18.69;100.00
75740;BME280;64357;51.344;6.550;2023-10-08T15:21:48;101944.72;;;18.64;100.00
75740;BME280;64357;51.344;6.550;2023-10-08T15:24:20;101947.28;;;18.44;100.00
75740;BME280;64357;51.344;6.550;2023-10-08T15:26:49;101944.06;;;18.36;100.00
75740;BME280;64357;51.344;6.550;2023-10-08T15:29:18;101933.31;;;18.42;100.00
75740;BME280;64357;51.344;6.550;2023-10-08T15:31:44;101937.19;;;18.37;100.00
75740;BME280;64357;51.344;6.550;2023-10-08T15:34:10;101935.91;;;18.32;100.00
75740;BME280;64357;51.344;6.550;2023-10-08T15:36:40;101941.59;;;18.38;100.00
75740;BME280;64357;51.344;6.550;2023-10-08T15:39:06;101939.38;;;18.32;100.00
75740;BME280;64357;51.344;6.550;2023-10-08T15:41:38;101929.66;;;18.20;100.00
75740;BME280;64357;51.344;6.550;2023-10-08T15:44:04;101938.84;;;18.16;100.00
75740;BME280;64357;51.344;6.550;2023-10-08T15:46:31;101931.56;;;18.02;100.00
75740;BME280;64357;51.344;6.550;2023-10-08T15:49:00;101917.88;;;18.03;100.00
75740;BME280;64357;51.344;6.550;2023-10-08T15:51:28;101919.03;;;17.96;100.00
75740;BME280;64357;51.344;6.550;2023-10-08T15:53:54;101908.28;;;17.92;100.00
75740;BME280;64357;51.344;6.550;2023-10-08T15:56:20;101909.41;;;17.85;100.00
75740;BME280;64357;51.344;6.550;2023-10-08T15:58:45;101907.50;;;17.82;100.00
75740;BME280;64357;51.344;6.550;2023-10-08T16:01:13;101912.38;;;17.79;100.00
75740;BME280;64357;51.344;6.550;2023-10-08T16:03:44;101912.94;;;17.67;100.00
75740;BME280;64357;51.344;6.550;2023-10-08T16:06:12;101911.34;;;17.58;100.00
75740;BME280;64357;51.344;6.550;2023-10-08T16:08:37;101917.44;;;17.59;100.00
75740;BME280;64357;51.344;6.550;2023-10-08T16:11:05;101906.19;;;17.58;100.00
75740;BME280;64357;51.344;6.550;2023-10-08T16:13:35;101913.69;;;17.55;100.00
75740;BME280;64357;51.344;6.550;2023-10-08T16:16:05;101907.06;;;17.49;100.00
75740;BME280;64357;51.344;6.550;2023-10-08T16:18:33;101906.88;;;17.37;100.00
75740;BME280;64357;51.344;6.550;2023-10-08T16:20:58;101913.44;;;17.33;100.00
75740;BME280;64357;51.344;6.550;2023-10-08T16:23:25;101908.16;;;17.32;100.00
75740;BME280;64357;51.344;6.550;2023-10-08T16:25:53;101905.91;;;17.26;100.00
75740;BME280;64357;51.344;6.550;2023-10-08T16:28:22;101908.56;;;17.18;100.00
75740;BME280;64357;51.344;6.550;2023-10-08T16:30:49;101910.75;;;17.13;100.00
75740;BME280;64357;51.344;6.550;2023-10-08T16:33:20;101917.53;;;17.02;100.00
75740;BME280;64357;51.344;6.550;2023-10-08T16:35:48;101911.03;;;16.97;100.00
75740;BME280;64357;51.344;6.550;2023-10-08T16:38:20;101916.19;;;16.97;100.00